Lunenburg, Nouvelle Écosse

Conditions des dernières 24 heures

Ce tableau est un sommaire des conditions météo couvrant les dernières 24 heures. Ce sommaire inclut les paramètres suivants: température, humidité, point de rosée, direction et vitesse du vent, pression barométrique, facteur de refroidissement éolien ou indice humidex.
Date / Heure
(HAA)
Conditions Temp (°C) Humidite (%) Point de rose (°C) Vent (km/h) Pression (kPa) Visibilité (km)
21 septembre 2014
7:00 N.D. 15 94 14 SO 10 101,9 N.D.
6:00 N.D. 15 91 14 SO 11 102,0 N.D.
5:00 N.D. 14 93 13 O 9 102,0 N.D.
4:00 N.D. 14 95 13 ONO 8 102,0 N.D.
3:00 N.D. 15 93 14 OSO 13 102,0 N.D.
2:00 N.D. 15 90 13 SO 15 102,1 N.D.
1:00 N.D. 15 89 14 O 11 102,2 N.D.
0:00 N.D. 15 90 14 OSO 18 102,2 N.D.
20 septembre 2014
23:00 N.D. 15 89 13 SO 12 102,3 N.D.
22:00 N.D. 15 88 13 OSO 12 102,3 N.D.
21:00 N.D. 15 84 13 SO 15 102,3 N.D.
20:00 N.D. 16 81 12 SO 21 rafale 34 102,3 N.D.
19:00 N.D. 16 80 12 SO 26 rafale 38 102,4 N.D.
18:00 N.D. 16 75 12 SO 41 102,4 N.D.
17:00 N.D. 16 70 11 SSO 38 rafale 52 102,4 N.D.
16:00 N.D. 17   57 8 OSO 26 rafale 41 102,4 N.D.
15:00 N.D. 16 65 10 SO 39 rafale 54 102,5 N.D.
14:00 N.D. 15 63 8 SO 47 rafale 58 102,6 N.D.
13:00 N.D. 15 61 8 SO 49 102,7 N.D.
12:00 N.D. 15 61 7 SO 36 rafale 49 102,8 N.D.
11:00 N.D. 14 59 6 OSO 30 rafale 40 102,8 N.D.
10:00 N.D. 12 64 5 OSO 9 102,9 N.D.
9:00 N.D. 8 68 2 O 11 102,9 N.D.
8:00 N.D. 7   73 2 ONO 11 103,0 N.D.
7:00 N.D. 7   75 2 ONO 8 103,0 N.D.
N.D.
non disponible
 ↑ 
température la plus haute
 ↓ 
température la plus basse

Si vous désirez plus de données historiques sur les conditions météo, s.v.p. visitez Données climatologiques en ligne.